Time;durP1;ratioP1;P1;durP2;ratioP2;P2;SDS_P1;SDS_P2;PMS_P1;PMS_P2;Temp;Humidity;BMP_temperature;BMP_pressure;BME280_temperature;BME280_humidity;BME280_pressure;Samples;Min_cycle;Max_cycle;Signal;HPM_P1;HPM_P2
2022/09/23 00:00:45;;;;;;;6.00;5.40;;;9.50;99.90;;;;;;5073113;28;20140;-67
2022/09/23 00:03:12;;;;;;;6.90;5.20;;;9.50;99.90;;;;;;5073118;28;20052;-69
2022/09/23 00:05:38;;;;;;;5.75;5.25;;;9.40;99.90;;;;;;5072075;28;20052;-67
2022/09/23 00:08:09;;;;;;;5.60;5.00;;;9.30;99.90;;;;;;5073067;28;20512;-68
2022/09/23 00:10:38;;;;;;;5.20;4.65;;;9.30;99.90;;;;;;5072896;28;20143;-68
2022/09/23 00:13:04;;;;;;;6.05;5.45;;;9.30;99.90;;;;;;5072929;28;20489;-68
2022/09/23 00:15:32;;;;;;;6.50;5.90;;;9.40;99.90;;;;;;5072869;28;20048;-68
2022/09/23 00:17:58;;;;;;;5.38;4.88;;;9.30;99.90;;;;;;5073526;28;20056;-68
2022/09/23 00:20:24;;;;;;;6.13;5.28;;;9.30;99.90;;;;;;5072983;28;20059;-68
2022/09/23 00:22:50;;;;;;;6.18;5.57;;;9.30;99.90;;;;;;5072846;28;20105;-68
2022/09/23 00:25:15;;;;;;;5.95;5.35;;;9.30;99.90;;;;;;5071751;28;20410;-68
2022/09/23 00:27:41;;;;;;;6.50;5.90;;;9.30;99.90;;;;;;5073376;28;20115;-68
2022/09/23 00:30:09;;;;;;;5.47;4.90;;;9.20;99.90;;;;;;5072114;28;20063;-69
2022/09/23 00:32:35;;;;;;;6.63;5.93;;;9.30;99.90;;;;;;5071774;28;20052;-68
2022/09/23 00:35:02;;;;;;;7.13;6.05;;;9.30;99.90;;;;;;5072708;28;20131;-68
2022/09/23 00:37:29;;;;;;;6.22;5.63;;;9.30;99.90;;;;;;5054654;28;20048;-68
2022/09/23 00:39:55;;;;;;;6.47;5.85;;;9.30;99.90;;;;;;5072214;28;20373;-68
2022/09/23 00:42:23;;;;;;;6.20;5.38;;;9.30;99.90;;;;;;5071607;28;20055;-68
2022/09/23 00:44:51;;;;;;;6.07;5.47;;;9.30;99.90;;;;;;5072704;28;20048;-68
2022/09/23 00:47:28;;;;;;;6.88;5.75;;;9.30;99.90;;;;;;5071462;28;20351;-68
2022/09/23 00:50:11;;;;;;;6.50;5.82;;;9.30;99.90;;;;;;5075004;28;20052;-68
2022/09/23 00:52:37;;;;;;;8.13;5.60;;;9.30;99.90;;;;;;5076214;28;20041;-68
2022/09/23 00:55:14;;;;;;;6.45;5.85;;;9.30;99.90;;;;;;5076675;28;20070;-68
2022/09/23 00:57:42;;;;;;;6.43;5.82;;;9.30;99.90;;;;;;5076239;28;20059;-69
2022/09/23 01:00:09;;;;;;;6.13;5.53;;;9.30;99.90;;;;;;5075788;28;20127;-68
2022/09/23 01:02:36;;;;;;;7.20;6.10;;;9.30;99.90;;;;;;5076103;28;20047;-68
2022/09/23 01:05:03;;;;;;;6.63;6.00;;;9.30;99.90;;;;;;5076014;28;20051;-68
2022/09/23 01:07:29;;;;;;;7.88;6.10;;;9.30;99.90;;;;;;5075998;28;20167;-68
2022/09/23 01:09:57;;;;;;;6.72;6.13;;;9.20;99.90;;;;;;5076462;28;20135;-68
2022/09/23 01:12:50;;;;;;;6.05;5.45;;;9.20;99.90;;;;;;5076651;28;20040;-68
2022/09/23 01:15:37;;;;;;;6.93;5.82;;;9.30;99.90;;;;;;5076613;28;20068;-68
2022/09/23 01:18:19;;;;;;;;;;;9.30;99.90;;;;;;5076642;28;20106;-68
2022/09/23 01:21:11;;;;;;;6.45;5.85;;;9.30;99.90;;;;;;5074744;28;19921;-68
2022/09/23 01:24:11;;;;;;;6.78;6.10;;;9.30;99.90;;;;;;5075996;28;20125;-68
2022/09/23 01:26:50;;;;;;;7.07;6.38;;;9.30;99.90;;;;;;5075709;28;20052;-68
2022/09/23 01:29:26;;;;;;;6.82;6.13;;;9.30;99.90;;;;;;5075539;28;20044;-69
2022/09/23 01:32:12;;;;;;;6.78;5.90;;;9.20;99.90;;;;;;5075617;28;20482;-68
2022/09/23 01:34:50;;;;;;;6.88;6.18;;;9.20;99.90;;;;;;5076071;28;20106;-68
2022/09/23 01:37:27;;;;;;;7.72;6.32;;;9.10;99.90;;;;;;5075291;28;20052;-68
2022/09/23 01:40:04;;;;;;;8.75;5.95;;;9.10;99.90;;;;;;5058031;28;20139;-68
2022/09/23 01:42:50;;;;;;;6.97;6.38;;;9.10;99.90;;;;;;5074690;28;20052;-68
2022/09/23 01:45:29;;;;;;;7.03;6.32;;;9.10;99.90;;;;;;5074657;28;20048;-69
2022/09/23 01:48:12;;;;;;;7.00;6.30;;;9.10;99.90;;;;;;5075808;28;20041;-68
2022/09/23 01:50:55;;;;;;;6.68;5.90;;;9.10;99.90;;;;;;5075141;28;20052;-68
2022/09/23 01:53:24;;;;;;;7.20;6.50;;;9.10;99.90;;;;;;5075658;28;20075;-68
2022/09/23 01:55:56;;;;;;;7.90;6.50;;;9.10;99.90;;;;;;5075102;28;20513;-68
2022/09/23 01:58:40;;;;;;;8.63;6.53;;;9.00;99.90;;;;;;5075881;28;20120;-68
2022/09/23 02:01:08;;;;;;;6.68;6.07;;;9.00;99.90;;;;;;5074986;28;20044;-69
2022/09/23 02:03:46;;;;;;;6.65;6.05;;;9.00;99.90;;;;;;5074728;28;20056;-69
2022/09/23 02:06:20;;;;;;;6.93;6.22;;;9.00;99.90;;;;;;5074999;28;20053;-68
2022/09/23 02:08:50;;;;;;;6.97;6.28;;;8.90;99.90;;;;;;5075208;28;20413;-69
2022/09/23 02:11:17;;;;;;;7.80;6.13;;;8.90;99.90;;;;;;5075070;28;20401;-68
2022/09/23 02:13:54;;;;;;;8.88;6.28;;;8.90;99.90;;;;;;5073465;28;20044;-68
2022/09/23 02:16:34;;;;;;;6.60;6.00;;;8.90;99.90;;;;;;5075189;28;20045;-68
2022/09/23 02:19:12;;;;;;;6.50;5.85;;;8.80;99.90;;;;;;5075435;28;20040;-68
2022/09/23 02:21:42;;;;;;;7.22;5.97;;;8.80;99.90;;;;;;5074325;28;20055;-68
2022/09/23 02:24:18;;;;;;;7.05;5.85;;;8.70;99.90;;;;;;5075102;28;20048;-68
2022/09/23 02:26:47;;;;;;;;;;;8.70;99.90;;;;;;5074214;28;20389;-68
2022/09/23 02:29:25;;;;;;;6.32;5.72;;;8.60;99.90;;;;;;5074263;28;19924;-69
2022/09/23 02:32:11;;;;;;;7.03;6.32;;;8.60;99.90;;;;;;5074969;28;20045;-68
2022/09/23 02:34:37;;;;;;;6.97;6.28;;;8.60;99.90;;;;;;5074580;28;20067;-68
2022/09/23 02:37:12;;;;;;;7.05;6.35;;;8.50;99.90;;;;;;5073570;28;20482;-68
2022/09/23 02:39:53;;;;;;;6.90;6.30;;;8.50;99.90;;;;;;5074054;28;20051;-68
2022/09/23 02:42:23;;;;;;;7.10;6.10;;;8.50;99.90;;;;;;5074187;28;20040;-68
2022/09/23 02:44:49;;;;;;;7.00;6.30;;;8.40;99.90;;;;;;5073781;28;20529;-69
2022/09/23 02:47:19;;;;;;;8.95;6.68;;;8.40;99.90;;;;;;5073078;28;20080;-68
2022/09/23 02:49:45;;;;;;;8.30;6.20;;;8.40;99.90;;;;;;5073828;28;20339;-68
2022/09/23 02:52:12;;;;;;;6.07;5.43;;;8.40;99.90;;;;;;5074435;28;20048;-69
2022/09/23 02:54:39;;;;;;;6.32;5.07;;;8.50;99.90;;;;;;5073846;28;20055;-68
2022/09/23 02:57:07;;;;;;;6.47;5.88;;;8.50;99.90;;;;;;5073947;28;20044;-68
2022/09/23 02:59:34;;;;;;;6.97;5.47;;;8.50;99.90;;;;;;5073765;28;20136;-69
2022/09/23 03:02:20;;;;;;;5.88;5.28;;;8.50;99.90;;;;;;5073826;28;20131;-69
2022/09/23 03:05:17;;;;;;;5.93;5.32;;;8.40;99.90;;;;;;5074085;28;20044;-69
2022/09/23 03:07:56;;;;;;;5.85;5.25;;;8.50;99.90;;;;;;5073762;28;20064;-69
2022/09/23 03:10:28;;;;;;;6.80;5.43;;;8.40;99.90;;;;;;5073985;28;20040;-69
2022/09/23 03:13:18;;;;;;;7.10;5.38;;;8.40;99.90;;;;;;5073696;28;20040;-69
2022/09/23 03:16:04;;;;;;;5.93;5.30;;;8.50;99.90;;;;;;5073959;28;20048;-68
2022/09/23 03:18:55;;;;;;;7.53;5.65;;;8.50;99.90;;;;;;5074437;28;20139;-69
2022/09/23 03:21:34;;;;;;;5.40;4.90;;;8.50;99.90;;;;;;5049608;28;20048;-69
2022/09/23 03:24:03;;;;;;;5.78;5.13;;;8.50;99.90;;;;;;5074036;28;20576;-69
2022/09/23 03:26:32;;;;;;;5.30;4.80;;;8.40;99.90;;;;;;5073467;28;20174;-68
2022/09/23 03:29:03;;;;;;;5.30;4.80;;;8.30;99.90;;;;;;5073453;28;20063;-68
2022/09/23 03:31:30;;;;;;;6.00;5.20;;;8.20;99.90;;;;;;5072758;28;20080;-69
2022/09/23 03:33:58;;;;;;;5.80;5.00;;;8.10;99.90;;;;;;5073347;28;20113;-69
2022/09/23 03:36:50;;;;;;;5.55;4.80;;;8.00;99.90;;;;;;5073358;28;20186;-69
2022/09/23 03:39:41;;;;;;;5.85;4.95;;;8.00;99.90;;;;;;5072397;28;20044;-68
2022/09/23 03:42:29;;;;;;;6.53;5.18;;;7.90;99.90;;;;;;5072232;28;20060;-68
2022/09/23 03:44:56;;;;;;;6.60;5.05;;;7.90;99.90;;;;;;5073232;28;20037;-69
2022/09/23 03:47:24;;;;;;;5.43;4.93;;;7.90;99.90;;;;;;5073250;28;20053;-69
2022/09/23 03:49:50;;;;;;;5.60;5.00;;;7.90;99.90;;;;;;5073276;28;20044;-69
2022/09/23 03:52:22;;;;;;;5.85;5.00;;;7.90;99.90;;;;;;5072464;28;20048;-68
2022/09/23 03:54:48;;;;;;;5.43;4.93;;;7.90;99.90;;;;;;5055315;28;20049;-68
2022/09/23 03:57:14;;;;;;;4.70;4.18;;;7.90;99.90;;;;;;5071971;28;20125;-69
2022/09/23 03:59:39;;;;;;;5.75;4.72;;;7.90;99.90;;;;;;5073865;28;20110;-69
2022/09/23 04:02:06;;;;;;;5.55;4.95;;;7.90;99.90;;;;;;5071886;28;20457;-69
2022/09/23 04:04:36;;;;;;;5.28;4.72;;;7.90;99.90;;;;;;5072150;28;20063;-69
2022/09/23 04:07:02;;;;;;;6.43;4.90;;;7.90;99.90;;;;;;5073739;28;20059;-68
2022/09/23 04:09:29;;;;;;;6.13;5.10;;;7.90;99.90;;;;;;5073367;28;20056;-68
2022/09/23 04:11:54;;;;;;;6.65;4.88;;;7.80;99.90;;;;;;5072917;28;20459;-69
2022/09/23 04:14:21;;;;;;;6.93;5.45;;;7.80;99.90;;;;;;5071809;28;20066;-68
2022/09/23 04:16:48;;;;;;;5.78;5.15;;;7.70;99.90;;;;;;5072983;28;20051;-69
2022/09/23 04:19:14;;;;;;;7.72;5.28;;;7.70;99.90;;;;;;5072609;28;20485;-69
2022/09/23 04:21:41;;;;;;;6.05;5.45;;;7.70;99.90;;;;;;5072689;28;20147;-69
2022/09/23 04:24:07;;;;;;;5.93;5.32;;;7.70;99.90;;;;;;5076158;28;20098;-69
2022/09/23 04:26:33;;;;;;;5.97;5.25;;;7.60;99.90;;;;;;5059076;28;20052;-69
2022/09/23 04:28:59;;;;;;;5.75;5.15;;;7.70;99.90;;;;;;5059135;28;20052;-69
2022/09/23 04:31:25;;;;;;;6.07;5.47;;;7.70;99.90;;;;;;5075918;28;20052;-69
2022/09/23 04:33:54;;;;;;;5.68;5.07;;;7.80;99.90;;;;;;5076539;28;20121;-69
2022/09/23 04:36:20;;;;;;;6.03;5.43;;;7.80;99.90;;;;;;5076366;28;20517;-69
2022/09/23 04:38:47;;;;;;;6.13;5.15;;;7.80;99.90;;;;;;5076518;28;20049;-69
2022/09/23 04:41:13;;;;;;;5.97;5.43;;;7.80;99.90;;;;;;5075790;28;20182;-69
2022/09/23 04:43:40;;;;;;;5.68;4.97;;;7.80;99.90;;;;;;5076403;28;20047;-68
2022/09/23 04:46:08;;;;;;;6.15;5.10;;;7.80;99.90;;;;;;5076360;28;20087;-69
2022/09/23 04:48:35;;;;;;;6.32;5.53;;;7.90;99.90;;;;;;5076297;28;20048;-68
2022/09/23 04:51:15;;;;;;;5.90;5.18;;;7.80;99.90;;;;;;5076251;28;20059;-68
2022/09/23 04:53:42;;;;;;;5.90;5.30;;;7.90;99.90;;;;;;5075549;28;20056;-68
2022/09/23 04:56:15;;;;;;;6.57;5.20;;;7.90;99.90;;;;;;5075982;28;20123;-68
2022/09/23 04:58:41;;;;;;;6.95;5.57;;;7.90;99.90;;;;;;5076151;28;20170;-68
2022/09/23 05:01:19;;;;;;;6.32;4.90;;;7.90;99.90;;;;;;5075923;28;20053;-68
2022/09/23 05:03:45;;;;;;;5.43;4.85;;;7.90;99.90;;;;;;5076086;28;20199;-68
2022/09/23 05:06:12;;;;;;;6.40;5.22;;;8.00;99.90;;;;;;5075036;28;20059;-68
2022/09/23 05:08:39;;;;;;;5.53;4.90;;;7.90;99.90;;;;;;5075410;28;20063;-68
2022/09/23 05:11:05;;;;;;;6.82;5.72;;;8.00;99.90;;;;;;5075806;28;20083;-68
2022/09/23 05:13:32;;;;;;;6.70;5.47;;;8.00;99.90;;;;;;5074388;28;20040;-68
2022/09/23 05:15:58;;;;;;;5.95;5.35;;;8.00;99.90;;;;;;5075574;28;20121;-68
2022/09/23 05:18:24;;;;;;;6.20;5.47;;;8.10;99.90;;;;;;5058750;28;20408;-68
2022/09/23 05:20:56;;;;;;;6.70;5.13;;;8.10;99.90;;;;;;5074784;28;20123;-69
2022/09/23 05:23:22;;;;;;;5.88;4.95;;;8.10;99.90;;;;;;5074107;28;20049;-69
2022/09/23 05:25:54;;;;;;;7.10;5.22;;;8.20;99.90;;;;;;5074986;28;20052;-69
2022/09/23 05:28:20;;;;;;;5.93;5.30;;;8.20;99.90;;;;;;5076154;28;20045;-68
2022/09/23 05:30:45;;;;;;;5.88;5.28;;;8.20;99.90;;;;;;5074398;28;20059;-69
2022/09/23 05:33:11;;;;;;;7.13;5.45;;;8.20;99.90;;;;;;5074528;28;20056;-68
2022/09/23 05:35:37;;;;;;;5.97;5.38;;;8.20;99.90;;;;;;5074638;28;20090;-68
2022/09/23 05:38:03;;;;;;;6.68;5.38;;;8.10;99.90;;;;;;5075697;28;20094;-69
2022/09/23 05:40:28;;;;;;;6.53;5.30;;;8.00;99.90;;;;;;5074660;28;20044;-68
2022/09/23 05:42:55;;;;;;;6.80;5.90;;;8.00;99.90;;;;;;5075391;28;20068;-68
2022/09/23 05:45:20;;;;;;;6.90;5.97;;;8.00;99.90;;;;;;5075527;28;20047;-68
2022/09/23 05:47:46;;;;;;;6.20;5.35;;;8.00;99.90;;;;;;5075294;28;20044;-68
2022/09/23 05:50:12;;;;;;;7.18;5.32;;;8.00;99.90;;;;;;5074915;28;20127;-68
2022/09/23 05:52:37;;;;;;;6.72;5.40;;;8.00;99.90;;;;;;5074803;28;20044;-68
2022/09/23 05:55:04;;;;;;;7.20;5.57;;;8.00;99.90;;;;;;5074235;28;20049;-68
2022/09/23 05:57:29;;;;;;;7.10;5.80;;;8.00;99.90;;;;;;5075176;28;20048;-68
2022/09/23 05:59:55;;;;;;;6.10;5.50;;;8.00;99.90;;;;;;5073868;28;20090;-68
2022/09/23 06:02:21;;;;;;;7.40;5.70;;;8.10;99.90;;;;;;5073674;28;20135;-68
2022/09/23 06:04:46;;;;;;;8.80;5.30;;;8.10;99.90;;;;;;5075394;28;20048;-68
2022/09/23 06:07:12;;;;;;;6.10;5.50;;;8.20;99.90;;;;;;5073682;28;20067;-68
2022/09/23 06:09:38;;;;;;;6.25;5.05;;;8.20;99.90;;;;;;5075179;28;20059;-68
2022/09/23 06:12:05;;;;;;;7.60;5.78;;;8.20;99.90;;;;;;5074716;28;20051;-67
2022/09/23 06:14:30;;;;;;;6.63;5.72;;;8.20;99.90;;;;;;5074590;28;20040;-68
2022/09/23 06:16:56;;;;;;;7.45;5.95;;;8.30;99.90;;;;;;5074632;28;20051;-68
2022/09/23 06:19:22;;;;;;;7.18;5.85;;;8.30;99.90;;;;;;5057756;28;20473;-68
2022/09/23 06:21:47;;;;;;;8.77;5.43;;;8.30;99.90;;;;;;5074136;28;20048;-68
2022/09/23 06:24:13;;;;;;;6.30;5.70;;;8.50;99.90;;;;;;5074519;28;20047;-68
2022/09/23 06:26:39;;;;;;;7.20;5.93;;;8.50;99.90;;;;;;5073269;28;20054;-68
2022/09/23 06:29:13;;;;;;;7.97;6.05;;;8.50;99.90;;;;;;5073177;28;20044;-68
2022/09/23 06:31:40;;;;;;;6.97;6.20;;;8.60;99.90;;;;;;5075176;28;20132;-68
2022/09/23 06:34:09;;;;;;;7.15;5.60;;;8.70;99.90;;;;;;5073914;28;20049;-68
2022/09/23 06:36:35;;;;;;;7.43;6.10;;;8.80;99.90;;;;;;5074128;28;20105;-68
2022/09/23 06:39:01;;;;;;;6.88;5.45;;;9.00;99.90;;;;;;5074225;28;20454;-69
2022/09/23 06:41:27;;;;;;;6.30;5.70;;;9.00;99.90;;;;;;5073211;28;20367;-68
2022/09/23 06:43:52;;;;;;;6.65;5.90;;;9.10;99.90;;;;;;5074189;28;20044;-68
2022/09/23 06:46:18;;;;;;;7.90;6.13;;;9.30;99.90;;;;;;5073417;28;20397;-69
2022/09/23 06:48:44;;;;;;;6.75;5.78;;;9.40;99.90;;;;;;5074468;28;20135;-68
2022/09/23 06:51:17;;;;;;;10.90;6.97;;;9.50;99.90;;;;;;5074505;28;20044;-69
2022/09/23 06:53:44;;;;;;;8.65;6.10;;;9.60;99.90;;;;;;5072744;28;20052;-68
2022/09/23 06:56:10;;;;;;;7.38;5.90;;;9.80;99.90;;;;;;5073916;28;20056;-68
2022/09/23 06:58:37;;;;;;;8.25;5.55;;;9.90;99.90;;;;;;5072822;28;20474;-69
2022/09/23 07:01:18;;;;;;;7.28;6.07;;;10.00;99.90;;;;;;5072525;28;20052;-68
2022/09/23 07:03:46;;;;;;;7.35;5.53;;;10.10;99.90;;;;;;5073816;28;20083;-68
2022/09/23 07:06:12;;;;;;;8.88;5.50;;;10.30;99.90;;;;;;5073724;28;20056;-68
2022/09/23 07:08:41;;;;;;;7.13;5.38;;;10.30;99.90;;;;;;5073357;28;20060;-69
2022/09/23 07:11:11;;;;;;;6.93;5.57;;;10.30;99.90;;;;;;5072100;28;20083;-68
2022/09/23 07:13:39;;;;;;;6.90;5.85;;;10.40;99.90;;;;;;5073687;28;20420;-71
2022/09/23 07:16:05;;;;;;;8.32;5.78;;;10.40;99.90;;;;;;5072903;28;20048;-71
2022/09/23 07:18:33;;;;;;;6.13;5.50;;;10.40;99.90;;;;;;5073659;28;20047;-71
2022/09/23 07:21:12;;;;;;;7.15;5.55;;;10.50;99.90;;;;;;5073569;28;20541;-71
2022/09/23 07:23:37;;;;;;;6.68;5.05;;;10.50;99.90;;;;;;5072611;28;20047;-71
2022/09/23 07:26:04;;;;;;;7.88;5.70;;;10.60;99.90;;;;;;5073834;28;20036;-70
2022/09/23 07:28:30;;;;;;;6.93;5.07;;;10.60;99.90;;;;;;5073456;28;20048;-71
2022/09/23 07:30:56;;;;;;;8.95;5.80;;;10.60;99.90;;;;;;5073540;28;20449;-70
2022/09/23 07:33:22;;;;;;;6.72;5.20;;;10.60;99.90;;;;;;5072498;28;20045;-71
2022/09/23 07:35:47;;;;;;;7.25;5.47;;;10.70;99.90;;;;;;5073564;28;20147;-71
2022/09/23 07:38:13;;;;;;;6.85;5.25;;;10.70;99.90;;;;;;5072429;28;20044;-67
2022/09/23 07:40:39;;;;;;;6.28;5.38;;;10.80;99.90;;;;;;5072706;28;20123;-67
2022/09/23 07:43:06;;;;;;;6.65;5.60;;;10.90;99.90;;;;;;5072249;28;20111;-67
2022/09/23 07:45:33;;;;;;;6.25;5.38;;;10.90;99.90;;;;;;5072335;28;20048;-67
2022/09/23 07:48:00;;;;;;;6.10;5.50;;;11.00;99.90;;;;;;5072357;28;20044;-67
2022/09/23 07:50:26;;;;;;;7.15;5.80;;;11.10;99.90;;;;;;5071945;28;20048;-67
2022/09/23 07:52:51;;;;;;;6.55;5.22;;;11.20;99.90;;;;;;5073796;28;20181;-68
2022/09/23 07:55:18;;;;;;;6.43;5.10;;;11.30;99.90;;;;;;5072033;28;20044;-67
2022/09/23 07:57:45;;;;;;;7.10;4.95;;;11.30;99.90;;;;;;5073915;28;20067;-68
2022/09/23 08:00:12;;;;;;;6.80;5.53;;;11.40;99.90;;;;;;5076411;28;20490;-68
2022/09/23 08:02:41;;;;;;;6.25;4.90;;;11.50;99.90;;;;;;5077591;28;20040;-67
2022/09/23 08:05:07;;;;;;;6.38;4.97;;;11.50;99.90;;;;;;5077237;28;20040;-68
2022/09/23 08:07:33;;;;;;;6.57;5.00;;;11.50;99.90;;;;;;5076733;28;20040;-64
2022/09/23 08:10:00;;;;;;;7.13;5.47;;;11.60;99.90;;;;;;5075664;28;20493;-65
2022/09/23 08:12:28;;;;;;;7.72;5.43;;;11.70;99.90;;;;;;5076971;28;20119;-64
2022/09/23 08:14:53;;;;;;;6.60;5.10;;;11.70;99.90;;;;;;5076833;28;20036;-65
2022/09/23 08:17:19;;;;;;;6.07;5.18;;;11.80;99.90;;;;;;5077440;28;20102;-65
2022/09/23 08:19:45;;;;;;;8.75;4.93;;;11.90;99.90;;;;;;5077753;28;20127;-65
2022/09/23 08:22:11;;;;;;;6.90;5.30;;;11.90;99.90;;;;;;5077136;28;20376;-65
2022/09/23 08:24:37;;;;;;;7.22;5.15;;;12.00;99.90;;;;;;5076885;28;20048;-65
2022/09/23 08:27:03;;;;;;;6.97;5.35;;;12.10;99.90;;;;;;5076833;28;20094;-65
2022/09/23 08:29:28;;;;;;;5.53;4.65;;;12.10;99.90;;;;;;5077273;28;20052;-65
2022/09/23 08:31:54;;;;;;;5.22;4.70;;;12.20;99.90;;;;;;5076737;28;20032;-65
2022/09/23 08:34:22;;;;;;;5.60;4.90;;;12.30;99.90;;;;;;5076666;28;20040;-65
2022/09/23 08:36:48;;;;;;;6.20;4.80;;;12.30;99.90;;;;;;5076650;28;20380;-65
2022/09/23 08:39:19;;;;;;;6.50;4.80;;;12.30;99.90;;;;;;5077424;28;20361;-65
2022/09/23 08:41:47;;;;;;;6.35;4.97;;;12.40;99.90;;;;;;5076587;28;20115;-65
2022/09/23 08:44:32;;;;;;;6.85;5.35;;;12.50;99.90;;;;;;5076505;28;20047;-65
2022/09/23 08:47:10;;;;;;;6.18;4.95;;;12.60;99.90;;;;;;5076439;28;20089;-65
2022/09/23 08:50:05;;;;;;;5.80;4.93;;;12.60;99.90;;;;;;5077583;28;20098;-65
2022/09/23 08:52:51;;;;;;;6.10;4.80;;;12.70;99.90;;;;;;5076581;28;20396;-65
2022/09/23 08:55:18;;;;;;;6.78;5.40;;;12.70;99.90;;;;;;5076403;28;20083;-65
2022/09/23 08:57:55;;;;;;;6.55;5.05;;;12.80;99.90;;;;;;5076824;28;20044;-65
2022/09/23 09:00:32;;;;;;;6.90;5.57;;;12.80;99.90;;;;;;5074861;28;20334;-65
2022/09/23 09:02:57;;;;;;;6.65;5.10;;;12.90;99.90;;;;;;5076202;28;20048;-65
2022/09/23 09:05:26;;;;;;;5.38;4.78;;;13.00;99.90;;;;;;5076116;28;20037;-65
2022/09/23 09:07:54;;;;;;;5.80;4.97;;;13.00;99.90;;;;;;5075151;28;20453;-65
2022/09/23 09:10:27;;;;;;;8.57;5.35;;;13.10;99.90;;;;;;5076173;28;20048;-65
2022/09/23 09:13:06;;;;;;;7.00;5.38;;;13.10;99.90;;;;;;5076023;28;20036;-65
2022/09/23 09:15:42;;;;;;;7.25;5.45;;;13.20;99.90;;;;;;5075904;28;20032;-65
2022/09/23 09:18:19;;;;;;;7.40;5.05;;;13.30;99.90;;;;;;5075620;28;20474;-65
2022/09/23 09:21:17;;;;;;;6.28;4.72;;;13.30;99.90;;;;;;5075802;28;20056;-66
2022/09/23 09:23:55;;;;;;;7.18;4.97;;;13.40;99.90;;;;;;5052522;28;20053;-66
2022/09/23 09:26:27;;;;;;;6.28;4.78;;;13.60;99.90;;;;;;5075309;28;20045;-66
2022/09/23 09:29:12;;;;;;;5.80;5.13;;;13.80;99.90;;;;;;5075774;28;20041;-65
2022/09/23 09:31:46;;;;;;;5.90;4.55;;;13.90;99.90;;;;;;5076032;28;20040;-65
2022/09/23 09:34:37;;;;;;;6.70;4.72;;;14.00;99.90;;;;;;5075589;28;20044;-65
2022/09/23 09:37:22;;;;;;;6.65;5.30;;;14.10;99.90;;;;;;5075566;28;20044;-66
2022/09/23 09:39:48;;;;;;;6.50;5.30;;;14.10;99.90;;;;;;5075885;28;20599;-65
2022/09/23 09:42:29;;;;;;;6.93;4.57;;;14.20;99.90;;;;;;5075231;28;20473;-65
2022/09/23 09:45:01;;;;;;;5.90;4.22;;;14.20;99.90;;;;;;5075504;28;20047;-65
2022/09/23 09:47:45;;;;;;;6.03;4.72;;;14.20;99.90;;;;;;5075360;28;20126;-65
2022/09/23 09:50:39;;;;;;;5.80;4.68;;;14.20;99.90;;;;;;5075931;28;20346;-65
2022/09/23 09:53:27;;;;;;;5.97;5.03;;;14.20;99.90;;;;;;5075798;28;20049;-65
2022/09/23 09:55:57;;;;;;;6.13;4.90;;;14.20;99.90;;;;;;5074707;28;20097;-66
2022/09/23 09:58:26;;;;;;;6.00;3.92;;;14.30;99.90;;;;;;5075818;28;20381;-66
2022/09/23 10:00:52;;;;;;;5.93;4.50;;;14.40;99.90;;;;;;5075038;28;20132;-65
2022/09/23 10:03:29;;;;;;;5.82;4.43;;;14.50;99.90;;;;;;5073696;28;20131;-65
2022/09/23 10:05:56;;;;;;;4.75;4.05;;;14.50;99.90;;;;;;5075686;28;20210;-65
2022/09/23 10:08:34;;;;;;;6.50;4.30;;;14.60;99.90;;;;;;5073559;28;20048;-65
2022/09/23 10:11:16;;;;;;;10.80;6.05;;;14.60;99.90;;;;;;5075174;28;20048;-66
2022/09/23 10:14:03;;;;;;;6.18;4.80;;;14.70;99.90;;;;;;5075550;28;20071;-65
2022/09/23 10:16:31;;;;;;;6.40;4.35;;;14.80;99.90;;;;;;5074689;28;20104;-65
2022/09/23 10:18:59;;;;;;;6.25;4.63;;;14.80;99.90;;;;;;5074683;28;20047;-66
2022/09/23 10:21:32;;;;;;;5.55;4.57;;;14.90;99.90;;;;;;5073752;28;20052;-65
2022/09/23 10:24:00;;;;;;;5.53;4.50;;;15.00;99.90;;;;;;5074673;28;20045;-65
2022/09/23 10:26:39;;;;;;;7.68;4.50;;;15.00;99.90;;;;;;5074598;28;20052;-65
2022/09/23 10:29:29;;;;;;;5.28;4.57;;;15.00;99.90;;;;;;5075045;28;20052;-64
2022/09/23 10:32:21;;;;;;;5.72;4.15;;;15.00;99.90;;;;;;5074259;28;20361;-64
2022/09/23 10:34:54;;;;;;;6.10;4.43;;;15.10;99.90;;;;;;5073071;28;20101;-64
2022/09/23 10:37:30;;;;;;;6.38;4.35;;;15.10;99.90;;;;;;5074432;28;20048;-66
2022/09/23 10:48:57;;;;;;;5.32;4.35;;;14.90;99.90;;;;;;5074906;28;20476;-64
2022/09/23 10:51:37;;;;;;;6.68;4.20;;;14.90;99.90;;;;;;5074574;28;20079;-64
2022/09/23 10:54:06;;;;;;;6.32;4.43;;;14.90;99.90;;;;;;5073775;28;20048;-63
2022/09/23 10:56:54;;;;;;;5.97;4.28;;;14.90;99.90;;;;;;5074490;28;20139;-63
2022/09/23 10:59:50;;;;;;;6.03;4.70;;;14.80;99.90;;;;;;5073927;28;20044;-64
2022/09/23 11:02:31;;;;;;;7.05;4.70;;;14.80;99.90;;;;;;5073918;28;20075;-64
2022/09/23 11:05:14;;;;;;;5.70;4.75;;;14.80;99.90;;;;;;5074064;28;20046;-64
2022/09/23 11:07:58;;;;;;;6.43;4.97;;;14.80;99.90;;;;;;5073064;28;20135;-64
2022/09/23 11:10:38;;;;;;;5.75;4.13;;;14.80;99.90;;;;;;5074065;28;20114;-64
2022/09/23 11:13:15;;;;;;;6.32;4.70;;;14.90;99.90;;;;;;5073031;28;20056;-64
2022/09/23 11:15:50;;;;;;;5.75;4.97;;;14.90;99.90;;;;;;5073690;28;20052;-66
2022/09/23 11:18:34;;;;;;;7.15;5.05;;;14.90;99.90;;;;;;5073705;28;20496;-65
2022/09/23 11:21:19;;;;;;;5.68;4.60;;;14.90;99.90;;;;;;5073725;28;20041;-65
2022/09/23 11:24:13;;;;;;;5.78;4.43;;;15.00;99.90;;;;;;5073809;28;20053;-65
2022/09/23 11:27:11;;;;;;;5.28;4.55;;;14.90;99.90;;;;;;5073572;28;20048;-66
2022/09/23 11:30:11;;;;;;;8.63;5.30;;;15.00;99.90;;;;;;5068235;28;20057;-65
2022/09/23 11:33:03;;;;;;;6.15;4.82;;;15.00;99.90;;;;;;5073280;28;20052;-65
2022/09/23 11:35:52;;;;;;;7.05;4.93;;;15.00;99.90;;;;;;5073403;28;20047;-64
2022/09/23 11:38:25;;;;;;;7.45;4.70;;;15.00;99.90;;;;;;5072076;28;20052;-64
2022/09/23 11:41:12;;;;;;;7.50;4.80;;;15.00;99.90;;;;;;5073587;28;20522;-65
2022/09/23 11:43:41;;;;;;;5.25;4.47;;;15.10;99.90;;;;;;5072677;28;20040;-65
2022/09/23 11:46:31;;;;;;;7.07;4.82;;;15.10;99.90;;;;;;5073270;28;20110;-65
2022/09/23 11:49:14;;;;;;;6.07;4.97;;;15.10;99.90;;;;;;5073534;28;20044;-65
2022/09/23 11:51:56;;;;;;;7.28;4.50;;;15.10;99.90;;;;;;5073192;28;20044;-65
2022/09/23 11:54:23;;;;;;;6.43;4.63;;;15.20;99.90;;;;;;5073402;28;20048;-65
2022/09/23 11:56:53;;;;;;;5.70;4.82;;;15.20;99.90;;;;;;5073172;28;20469;-65
2022/09/23 11:59:45;;;;;;;5.93;4.88;;;15.20;99.90;;;;;;5071886;28;20045;-65
2022/09/23 12:02:35;;;;;;;7.03;5.00;;;15.30;99.90;;;;;;5073521;28;20124;-65
2022/09/23 12:05:17;;;;;;;5.30;4.53;;;15.30;99.90;;;;;;5073201;28;20191;-65
2022/09/23 12:08:25;;;;;;;6.70;5.20;;;15.30;99.90;;;;;;5072877;28;20481;-64
2022/09/23 12:11:16;;;;;;;7.28;5.03;;;15.30;99.90;;;;;;5067437;28;20128;-64
2022/09/23 12:14:13;;;;;;;6.97;4.72;;;15.30;99.90;;;;;;5074047;28;20044;-65
2022/09/23 12:16:57;;;;;;;6.78;4.70;;;15.30;99.90;;;;;;5073048;28;20123;-64
2022/09/23 12:19:55;;;;;;;6.13;4.43;;;15.30;99.90;;;;;;5073015;28;20087;-67
2022/09/23 12:22:38;;;;;;;5.47;4.60;;;15.40;99.90;;;;;;5069726;28;20148;-65
2022/09/23 12:25:25;;;;;;;5.60;4.43;;;15.40;99.90;;;;;;5072910;28;20041;-65
2022/09/23 12:27:54;;;;;;;5.57;4.43;;;15.40;99.90;;;;;;5072845;28;20044;-65
2022/09/23 12:30:31;;;;;;;6.20;5.20;;;15.50;99.90;;;;;;5072864;28;20040;-65
2022/09/23 12:33:21;;;;;;;6.25;4.88;;;15.50;99.90;;;;;;5071628;28;20129;-66
2022/09/23 12:35:47;;;;;;;5.78;4.90;;;15.50;99.90;;;;;;5072851;28;20037;-66
2022/09/23 12:38:18;;;;;;;6.97;4.90;;;15.50;99.90;;;;;;5072964;28;20139;-66
2022/09/23 12:40:45;;;;;;;5.82;4.63;;;15.50;99.90;;;;;;5073223;28;20048;-65
2022/09/23 12:43:34;;;;;;;5.95;5.05;;;15.50;99.90;;;;;;5072921;28;20055;-66
2022/09/23 12:46:17;;;;;;;6.75;4.65;;;15.60;99.90;;;;;;5075831;28;20162;-66
2022/09/23 12:48:47;;;;;;;5.35;4.40;;;15.50;99.90;;;;;;5076368;28;20474;-66
2022/09/23 12:51:18;;;;;;;5.55;4.70;;;15.60;99.90;;;;;;5077100;28;20040;-66
2022/09/23 12:53:48;;;;;;;5.70;4.50;;;15.60;99.90;;;;;;5075859;28;20528;-66
2022/09/23 12:56:17;;;;;;;6.53;4.40;;;15.60;99.90;;;;;;5075535;28;20048;-65
2022/09/23 12:58:43;;;;;;;8.57;5.45;;;15.60;99.90;;;;;;5076158;28;20044;-65
2022/09/23 13:01:14;;;;;;;7.30;4.90;;;15.60;99.90;;;;;;5075968;28;20044;-66
2022/09/23 13:06:49;;;;;;;6.40;4.68;;;15.70;99.90;;;;;;5076121;28;20055;-64
2022/09/23 13:09:24;;;;;;;7.63;4.97;;;15.70;99.90;;;;;;5076034;28;20150;-64
2022/09/23 13:11:52;;;;;;;6.68;5.10;;;15.70;99.90;;;;;;5076848;28;20060;-64
2022/09/23 13:14:23;;;;;;;6.07;4.50;;;15.70;99.90;;;;;;5074611;28;20120;-64
2022/09/23 13:16:49;;;;;;;7.43;4.28;;;15.70;99.90;;;;;;5076023;28;20049;-64
2022/09/23 13:19:24;;;;;;;5.55;4.30;;;15.80;99.90;;;;;;5075885;28;20037;-64
2022/09/23 13:21:50;;;;;;;4.93;4.20;;;15.80;99.90;;;;;;5075707;28;20127;-64
2022/09/23 13:24:21;;;;;;;5.07;4.22;;;15.90;99.90;;;;;;5075789;28;20464;-65
2022/09/23 13:26:52;;;;;;;5.70;4.00;;;15.90;99.90;;;;;;5075713;28;20396;-65
2022/09/23 13:29:36;;;;;;;6.43;4.10;;;15.90;99.90;;;;;;5075627;28;20095;-66
2022/09/23 13:32:02;;;;;;;7.43;4.53;;;16.00;99.90;;;;;;5075852;28;20051;-67
2022/09/23 13:34:33;;;;;;;4.57;4.05;;;16.00;99.90;;;;;;5076303;28;20123;-66